Airfield :
LOGIN :

Register | Disclaimer

   EN    FR    IT 

 










Legend :    VFR   Marginal VFR   IFR   Intensive IFR   Very Intensive IFR
Visi :
Ceiling :
>= 8 km
>= 3000ft
5 to 8 km
1000 to 3000 ft
1500m to 5 km
500 to 1000 ft
800 to 1500m
200 to 500 ft
< 800m
< 200 ft
Symbols :   Thunderstorms  Fog  Heavy snow  Heavy precipitations  Wind > 20 kt
SIGMETs :     Misc.  Thunderstorms  Icing  Turbulence  Mountain Waves  Volcanic Ashes







- Airport Elevation : 1860 ft
- IATA code : GRX


LEGR - Granada

CURRENT METAR :
  • 232100Z 04004KT 340V080 9999 FEW030 SCT070 BKN100 22/05 Q1012

EXPIRED METARs :
  • 232030Z 09011KT 030V120 9999 FEW065TCU 22/05 Q1013
  • 232000Z 07011KT 040V100 9999 FEW065TCU SCT085 BKN110 23/04 Q1012
  • 231930Z 06010KT 010V100 9999 FEW015 SCT050TCU BKN080 23/05 Q1011
  • 231900Z 06010KT 9999 TS FEW015 SCT050CB BKN080 22/05 Q1011 RESHRA
  • 231830Z 06011G24KT 030V090 9999 SHRA TS FEW030 SCT050CB 24/05 Q1010

TAF TAF LEGR
Valid from the 23 at 21:00 until the 24 at 21:00 UTC


232000Z 2321/2421 05007KT 9999 FEW060 SCT100 TX26/2415Z TN13/2406Z
PROB30
TEMPO 2321/2405 4000 SHRA TS FEW025 SCT045CB BKN100
BECMG 2412/2415 27010KT
No reported NOTAMs for that airfield.
3 SIGMETs reported for the Madrid FIR (LECM) :
 
Embedded thunderstorms
LECM SIGMET 7 VALID 232100/232230 LEVA
LECM MADRID FIR/UIR EMBD TS OBS AT 2054Z WI N3612 W00203 - N3709 W00148 - N3833 W00355 - N3744 W00444 - N3612 W00203 TOP FL380 MOV N NC=
Embedded thunderstorms
LECM SIGMET 6 VALID 231931/232100 LEVA
LECM MADRID FIR/UIR EMBD TS OBS AT 1931Z S OF LINE N4228 W00736 - N4229 W00636 TOP FL360 STNR WKN=
Embedded thunderstorms
LECM SIGMET 5 VALID 231928/232100 LEVA
LECM MADRID FIR/UIR EMBD TS OBS AT 1928Z WI N3741 W00601 - N3551 W00232 - N3618 W00157 - N3747 W00315 - N3741 W00601 TOP FL380 MOV N NC=



MET'MAP, your aeronautical weather chart ! - Copyright ORBIFLY December 2007 - Disclaimer

ORBIFLY MET'MAP TEAM :

Programming & Development : Alexandra Zaïnal
Concept & Development : Baudouin d'Aumeries
Co-Development & Prog : Marc-Olivier Méhu
Technical & hardware support : Manuel Goepfert

Contact : metmap@orbifly.com




SOURCES & CREDITS :

   NOAA